Time;durP1;ratioP1;P1;durP2;ratioP2;P2;SDS_P1;SDS_P2;PMS_P1;PMS_P2;Temp;Humidity;BMP_temperature;BMP_pressure;BME280_temperature;BME280_humidity;BME280_pressure;Samples;Min_cycle;Max_cycle;Signal;HPM_P1;HPM_P2
2023/08/08 00:00:03;;;;;;;;;;;13.70;99.90;;;;;;5044715;28;19929;-43
2023/08/08 00:02:29;;;;;;;;;;;13.70;99.90;;;;;;5036548;28;20027;-44
2023/08/08 00:04:56;;;;;;;;;;;13.70;99.90;;;;;;5034849;28;19925;-44
2023/08/08 00:07:23;;;;;;;;;;;13.70;99.90;;;;;;5041485;28;19987;-45
2023/08/08 00:09:50;;;;;;;;;;;13.70;99.90;;;;;;5039067;28;19929;-44
2023/08/08 00:12:16;;;;;;;;;;;13.70;99.90;;;;;;5034756;28;20354;-44
2023/08/08 00:14:43;;;;;;;;;;;13.70;99.90;;;;;;5034573;28;19933;-44
2023/08/08 00:17:11;;;;;;;;;;;13.70;99.90;;;;;;5047637;28;19936;-42
2023/08/08 00:19:38;;;;;;;;;;;13.70;99.90;;;;;;5053132;28;19978;-44
2023/08/08 00:22:04;;;;;;;;;;;13.70;99.90;;;;;;5053057;28;19929;-44
2023/08/08 00:24:31;;;;;;;;;;;13.80;99.90;;;;;;5034897;28;19952;-44
2023/08/08 00:26:58;;;;;;;;;;;13.80;99.90;;;;;;5044305;28;19925;-44
2023/08/08 00:29:24;;;;;;;;;;;13.80;99.90;;;;;;5045255;28;19932;-44
2023/08/08 00:31:51;;;;;;;;;;;13.80;99.90;;;;;;5033869;28;19952;-44
2023/08/08 00:34:19;;;;;;;;;;;13.80;99.90;;;;;;5034027;28;19925;-44
2023/08/08 00:36:46;;;;;;;;;;;13.80;99.90;;;;;;5041747;28;19925;-44
2023/08/08 00:39:12;;;;;;;;;;;13.80;99.90;;;;;;5053297;28;19924;-44
2023/08/08 00:41:39;;;;;;;;;;;13.80;99.90;;;;;;5054160;28;19931;-44
2023/08/08 00:44:06;;;;;;;;;;;13.80;99.90;;;;;;5054164;28;19931;-44
2023/08/08 00:46:32;;;;;;;;;;;13.80;99.90;;;;;;5051942;28;19928;-44
2023/08/08 00:48:59;;;;;;;;;;;13.80;99.90;;;;;;5033269;28;19975;-44
2023/08/08 00:51:27;;;;;;;;;;;13.80;99.90;;;;;;5034280;28;19925;-44
2023/08/08 00:53:54;;;;;;;;;;;13.80;99.90;;;;;;5032896;28;20439;-44
2023/08/08 00:56:21;;;;;;;;;;;13.80;99.90;;;;;;5037412;28;19932;-43
2023/08/08 00:58:50;;;;;;;;;;;13.80;99.90;;;;;;5053800;28;19925;-44
2023/08/08 01:01:16;;;;;;;;;;;13.80;99.90;;;;;;5038779;28;19925;-44
2023/08/08 01:03:43;;;;;;;;;;;13.80;99.90;;;;;;5034030;28;19925;-44
2023/08/08 01:06:12;;;;;;;;;;;13.80;99.90;;;;;;5031144;28;20067;-43
2023/08/08 01:08:40;;;;;;;;;;;13.80;99.90;;;;;;5032356;28;19925;-43
2023/08/08 01:11:07;;;;;;;;;;;13.80;99.90;;;;;;5030631;28;20299;-44
2023/08/08 01:13:33;;;;;;;;;;;13.80;99.90;;;;;;5037773;28;19978;-43
2023/08/08 01:16:00;;;;;;;;;;;13.80;99.90;;;;;;5033103;28;20474;-44
2023/08/08 01:18:27;;;;;;;;;;;13.80;99.90;;;;;;5031629;28;19925;-43
2023/08/08 01:20:54;;;;;;;;;;;13.80;99.90;;;;;;5033439;28;20316;-44
2023/08/08 01:23:25;;;;;;;;;;;13.80;99.90;;;;;;5036369;28;19975;-44
2023/08/08 01:25:53;;;;;;;;;;;13.80;99.90;;;;;;5034223;28;19976;-44
2023/08/08 01:28:21;;;;;;;;;;;13.80;99.90;;;;;;5032240;28;19929;-43
2023/08/08 01:30:48;;;;;;;;;;;13.80;99.90;;;;;;5033177;28;19932;-43
2023/08/08 01:33:14;;;;;;;;;;;13.80;99.90;;;;;;5032476;28;19925;-43
2023/08/08 01:35:42;;;;;;;;;;;13.80;99.90;;;;;;5032373;28;19929;-43
2023/08/08 01:38:10;;;;;;;;;;;13.80;99.90;;;;;;5032590;28;19929;-44
2023/08/08 01:40:36;;;;;;;;;;;13.80;99.90;;;;;;5043945;28;19932;-43
2023/08/08 01:43:04;;;;;;;;;;;13.80;99.90;;;;;;5052499;28;19925;-44
2023/08/08 01:45:31;;;;;;;;;;;13.80;99.90;;;;;;5034609;28;19931;-44
2023/08/08 01:47:58;;;;;;;;;;;13.80;99.90;;;;;;5032811;28;19925;-44
2023/08/08 01:50:25;;;;;;;;;;;13.80;99.90;;;;;;5042068;28;19931;-44
2023/08/08 01:52:52;;;;;;;;;;;13.80;99.90;;;;;;5052845;28;19929;-43
2023/08/08 01:55:19;;;;;;;;;;;13.70;99.90;;;;;;5038095;28;20388;-44
2023/08/08 01:57:45;;;;;;;;;;;13.70;99.90;;;;;;5032299;28;19959;-44
2023/08/08 02:00:14;;;;;;;;;;;13.70;99.90;;;;;;5039438;28;20256;-44
2023/08/08 02:02:40;;;;;;;;;;;13.70;99.90;;;;;;5033896;28;20300;-44
2023/08/08 02:05:07;;;;;;;;;;;13.70;99.90;;;;;;5049798;28;20444;-43
2023/08/08 02:07:34;;;;;;;;;;;13.70;99.90;;;;;;5032894;28;19991;-44
2023/08/08 02:10:00;;;;;;;;;;;13.70;99.90;;;;;;5032840;28;20445;-44
2023/08/08 02:12:28;;;;;;;;;;;13.70;99.90;;;;;;5045028;28;19948;-44
2023/08/08 02:14:55;;;;;;;;;;;13.80;99.90;;;;;;5042462;28;19925;-43
2023/08/08 02:17:23;;;;;;;;;;;13.70;99.90;;;;;;5035660;28;19975;-44
2023/08/08 02:19:50;;;;;;;;;;;13.70;99.90;;;;;;5031452;28;19975;-44
2023/08/08 02:22:16;;;;;;;;;;;13.70;99.90;;;;;;5035511;28;19925;-44
2023/08/08 02:24:43;;;;;;;;;;;13.70;99.90;;;;;;5032167;28;20380;-43
2023/08/08 02:27:10;;;;;;;;;;;13.70;99.90;;;;;;5032304;28;19929;-44
2023/08/08 02:29:36;;;;;;;;;;;13.70;99.90;;;;;;5034851;28;19931;-44
2023/08/08 02:32:03;;;;;;;;;;;13.70;99.90;;;;;;5034808;28;19925;-44
2023/08/08 02:34:31;;;;;;;;;;;13.70;99.90;;;;;;5047179;28;19933;-43
2023/08/08 02:36:58;;;;;;;;;;;13.70;99.90;;;;;;5050550;28;20373;-44
2023/08/08 02:39:25;;;;;;;;;;;13.70;99.90;;;;;;5032432;28;19925;-44
2023/08/08 02:41:51;;;;;;;;;;;13.70;99.90;;;;;;5047549;28;19929;-44
2023/08/08 02:44:19;;;;;;;;;;;13.70;99.90;;;;;;5050290;28;19948;-43
2023/08/08 02:46:46;;;;;;;;;;;13.70;99.90;;;;;;5036137;28;19971;-43
2023/08/08 02:49:12;;;;;;;;;;;13.70;99.90;;;;;;5036689;28;19929;-44
2023/08/08 02:51:41;;;;;;;;;;;13.70;99.90;;;;;;5043968;28;20364;-43
2023/08/08 02:54:07;;;;;;;;;;;13.70;99.90;;;;;;5041073;28;19924;-42
2023/08/08 02:56:34;;;;;;;;;;;13.70;99.90;;;;;;5049193;28;19929;-43
2023/08/08 02:59:01;;;;;;;;;;;13.70;99.90;;;;;;5034611;28;20448;-44
2023/08/08 03:01:27;;;;;;;;;;;13.70;99.90;;;;;;5040034;28;19962;-44
2023/08/08 03:03:54;;;;;;;;;;;13.70;99.90;;;;;;5052958;28;20396;-43
2023/08/08 03:06:21;;;;;;;;;;;13.70;99.90;;;;;;5048044;28;19929;-44
2023/08/08 03:08:49;;;;;;;;;;;13.70;99.90;;;;;;5053469;28;19931;-44
2023/08/08 03:11:15;;;;;;;;;;;13.60;99.90;;;;;;5046577;28;19979;-43
2023/08/08 03:13:42;;;;;;;;;;;13.60;99.90;;;;;;5051785;28;19982;-42
2023/08/08 03:16:09;;;;;;;;;;;13.60;99.90;;;;;;5054544;28;19970;-44
2023/08/08 03:18:35;;;;;;;;;;;13.50;99.90;;;;;;5040902;28;20027;-44
2023/08/08 03:21:02;;;;;;;;;;;13.60;99.90;;;;;;5048220;28;19970;-43
2023/08/08 03:23:29;;;;;;;;;;;13.60;99.90;;;;;;5047655;28;20482;-44
2023/08/08 03:25:57;;;;;;;;;;;13.50;99.90;;;;;;5052751;28;19979;-43
2023/08/08 03:28:23;;;;;;;;;;;13.50;99.90;;;;;;5054314;28;19982;-43
2023/08/08 03:30:50;;;;;;;;;;;13.50;99.90;;;;;;5051971;28;19928;-44
2023/08/08 03:33:17;;;;;;;;;;;13.50;99.90;;;;;;5052409;28;19925;-44
2023/08/08 03:35:44;;;;;;;;;;;13.50;99.90;;;;;;5039020;28;19925;-43
2023/08/08 03:38:11;;;;;;;;;;;13.50;99.90;;;;;;5037800;28;19929;-44
2023/08/08 03:40:37;;;;;;;;;;;13.50;99.90;;;;;;5042101;28;19932;-44
2023/08/08 03:43:06;;;;;;;;;;;13.40;99.90;;;;;;5048116;28;20454;-44
2023/08/08 03:45:32;;;;;;;;;;;13.50;99.90;;;;;;5038199;28;19925;-43
2023/08/08 03:47:59;;;;;;;;;;;13.40;99.90;;;;;;5033755;28;19929;-44
2023/08/08 03:50:26;;;;;;;;;;;13.40;99.90;;;;;;5042759;28;19925;-44
2023/08/08 03:52:53;;;;;;;;;;;13.40;99.90;;;;;;5054021;28;19931;-44
2023/08/08 03:55:19;;;;;;;;;;;13.40;99.90;;;;;;5035921;28;19933;-43
2023/08/08 03:57:46;;;;;;;;;;;13.30;99.90;;;;;;5033388;28;19976;-44
2023/08/08 04:00:14;;;;;;;;;;;13.40;99.90;;;;;;5043982;28;19925;-44
2023/08/08 04:02:41;;;;;;;;;;;13.30;99.90;;;;;;5034332;28;20343;-43
2023/08/08 04:05:08;;;;;;;;;;;13.30;99.90;;;;;;5026405;28;20392;-43
2023/08/08 04:07:35;;;;;;;;;;;13.30;99.90;;;;;;5028002;28;19929;-43
2023/08/08 04:10:02;;;;;;;;;;;13.30;99.90;;;;;;5039449;28;19937;-43
2023/08/08 04:12:29;;;;;;;;;;;13.30;99.90;;;;;;5042420;28;19929;-44
2023/08/08 04:14:55;;;;;;;;;;;13.30;99.90;;;;;;5033646;28;20048;-43
2023/08/08 04:17:23;;;;;;;;;;;13.20;99.90;;;;;;5034706;28;19925;-44
2023/08/08 04:19:50;;;;;;;;;;;13.20;99.90;;;;;;5041138;28;19929;-44
2023/08/08 04:22:17;;;;;;;;;;;13.20;99.90;;;;;;5042853;28;19932;-44
2023/08/08 04:24:44;;;;;;;;;;;13.20;99.90;;;;;;5034076;28;20380;-43
2023/08/08 04:27:11;;;;;;;;;;;13.10;99.90;;;;;;5032977;28;19933;-44
2023/08/08 04:29:37;;;;;;;;;;;13.10;99.90;;;;;;5041192;28;19924;-44
2023/08/08 04:32:04;;;;;;;;;;;13.10;99.90;;;;;;5052823;28;19932;-44
2023/08/08 04:34:32;;;;;;;;;;;13.10;99.90;;;;;;5043396;28;19932;-44
2023/08/08 04:36:59;;;;;;;;;;;13.00;99.90;;;;;;5034280;28;19972;-44
2023/08/08 04:39:26;;;;;;;;;;;13.10;99.90;;;;;;5037281;28;19955;-43
2023/08/08 04:41:52;;;;;;;;;;;13.10;99.90;;;;;;5054024;28;19925;-43
2023/08/08 04:44:19;;;;;;;;;;;13.10;99.90;;;;;;5052942;28;19925;-44
2023/08/08 04:46:46;;;;;;;;;;;13.10;99.90;;;;;;5049090;28;19987;-43
2023/08/08 04:49:12;;;;;;;;;;;13.10;99.90;;;;;;5033582;28;20391;-43
2023/08/08 04:51:40;;;;;;;;;;;13.00;99.90;;;;;;5033005;28;20328;-44
2023/08/08 04:54:07;;;;;;;;;;;13.10;99.90;;;;;;5034017;28;20302;-44
2023/08/08 04:56:33;;;;;;;;;;;13.10;99.90;;;;;;5032825;28;19933;-43
2023/08/08 04:59:00;;;;;;;;;;;13.10;99.90;;;;;;5030592;28;19940;-44
2023/08/08 05:01:27;;;;;;;;;;;13.10;99.90;;;;;;5035323;28;19936;-44
2023/08/08 05:03:54;;;;;;;;;;;13.20;99.90;;;;;;5048261;28;19925;-44
2023/08/08 05:06:20;;;;;;;;;;;13.20;99.90;;;;;;5043099;28;19952;-44
2023/08/08 05:08:49;;;;;;;;;;;13.20;99.90;;;;;;5032654;28;19925;-44
2023/08/08 05:11:16;;;;;;;;;;;13.20;99.90;;;;;;5051823;28;20411;-44
2023/08/08 05:13:43;;;;;;;;;;;13.30;99.90;;;;;;5037395;28;19924;-43
2023/08/08 05:16:10;;;;;;;;;;;13.40;99.90;;;;;;5035481;28;20043;-44
2023/08/08 05:18:36;;;;;;;;;;;13.40;99.90;;;;;;5033429;28;19947;-43
2023/08/08 05:21:03;;;;;;;;;;;13.50;99.90;;;;;;5042823;28;19925;-44
2023/08/08 05:23:30;;;;;;;;;;;13.60;99.90;;;;;;5039953;28;19971;-43
2023/08/08 05:25:58;;;;;;;;;;;13.60;99.90;;;;;;5032308;28;20281;-44
2023/08/08 05:28:25;;;;;;;;;;;13.70;99.90;;;;;;5031130;28;19925;-44
2023/08/08 05:30:51;;;;;;;;;;;13.70;99.90;;;;;;5029883;28;19932;-44
2023/08/08 05:33:18;;;;;;;;;;;13.80;99.90;;;;;;5032807;28;19987;-44
2023/08/08 05:35:45;;;;;;;;;;;13.90;99.90;;;;;;5031576;28;20390;-43
2023/08/08 05:38:12;;;;;;;;;;;13.90;99.90;;;;;;5031931;28;19926;-43
2023/08/08 05:40:38;;;;;;;;;;;13.90;99.90;;;;;;5048565;28;19932;-44
2023/08/08 05:43:06;;;;;;;;;;;14.00;99.90;;;;;;5032707;28;19932;-43
2023/08/08 05:45:33;;;;;;;;;;;14.00;99.90;;;;;;5029620;28;19932;-44
2023/08/08 05:48:00;;;;;;;;;;;14.00;99.90;;;;;;5031298;28;19925;-43
2023/08/08 05:50:27;;;;;;;;;;;14.00;99.90;;;;;;5030574;28;19998;-43
2023/08/08 05:52:54;;;;;;;;;;;14.00;99.90;;;;;;5031783;28;19929;-43
2023/08/08 05:55:20;;;;;;;;;;;14.00;99.90;;;;;;5031369;28;19932;-44
2023/08/08 05:57:47;;;;;;;;;;;14.00;99.90;;;;;;5047921;28;20399;-43
2023/08/08 06:00:16;;;;;;;;;;;14.00;99.90;;;;;;5032625;28;19929;-43
2023/08/08 06:02:42;;;;;;;;;;;14.00;99.90;;;;;;5032025;28;19976;-44
2023/08/08 06:05:09;;;;;;;;;;;14.10;99.90;;;;;;5030730;28;19948;-43
2023/08/08 06:07:36;;;;;;;;;;;14.20;99.90;;;;;;5029377;28;19925;-43
2023/08/08 06:10:03;;;;;;;;;;;14.30;99.90;;;;;;5031376;28;19933;-43
2023/08/08 06:12:29;;;;;;;;;;;14.40;99.90;;;;;;5040399;28;20313;-43
2023/08/08 06:14:56;;;;;;;;;;;14.60;99.90;;;;;;5020178;28;19929;-43
2023/08/08 06:17:24;;;;;;;;;;;14.60;99.90;;;;;;5031102;28;20304;-44
2023/08/08 06:19:51;;;;;;;;;;;14.80;99.90;;;;;;5031751;28;19929;-43
2023/08/08 06:22:18;;;;;;;;;;;14.90;99.90;;;;;;5042896;28;19972;-44
2023/08/08 06:24:44;;;;;;;;;;;15.00;99.90;;;;;;5027157;28;19978;-44
2023/08/08 06:27:11;;;;;;;;;;;15.10;99.90;;;;;;5034934;28;20295;-43
2023/08/08 06:29:38;;;;;;;;;;;15.20;99.90;;;;;;5050139;28;20363;-43
2023/08/08 06:32:04;;;;;;;;;;;15.30;99.90;;;;;;5042859;28;19925;-44
2023/08/08 06:34:32;;;;;;;;;;;15.50;99.90;;;;;;5038965;28;19924;-43
2023/08/08 06:36:59;;;;;;;;;;;15.50;99.90;;;;;;5035319;28;19976;-43
2023/08/08 06:39:26;;;;;;;;;;;15.70;99.90;;;;;;5033858;28;19972;-43
2023/08/08 06:41:53;;;;;;;;;;;15.70;99.90;;;;;;5044333;28;19932;-44
2023/08/08 06:44:20;;;;;;;;;;;15.90;99.90;;;;;;5051480;28;19924;-43
2023/08/08 06:46:46;;;;;;;;;;;16.00;99.90;;;;;;5048314;28;19936;-43
2023/08/08 06:49:13;;;;;;;;;;;16.10;99.90;;;;;;5053509;28;19928;-43
2023/08/08 06:51:41;;;;;;;;;;;16.20;99.90;;;;;;5049907;28;19928;-43
2023/08/08 06:54:08;;;;;;;;;;;16.30;99.90;;;;;;5036187;28;19987;-44
2023/08/08 06:56:34;;;;;;;;;;;16.40;99.90;;;;;;5040724;28;19955;-43
2023/08/08 06:59:01;;;;;;;;;;;16.50;99.90;;;;;;5044261;28;19929;-43
2023/08/08 07:01:28;;;;;;;;;;;16.60;99.90;;;;;;5040257;28;19933;-43
2023/08/08 07:03:54;;;;;;;;;;;16.70;99.90;;;;;;5034468;28;20320;-43
2023/08/08 07:06:21;;;;;;;;;;;16.80;99.90;;;;;;5047540;28;19947;-44
2023/08/08 07:08:49;;;;;;;;;;;16.90;99.90;;;;;;5042506;28;19940;-43
2023/08/08 07:11:16;;;;;;;;;;;16.90;99.90;;;;;;5031968;28;19925;-43
2023/08/08 07:13:43;;;;;;;;;;;17.00;99.90;;;;;;5033719;28;19925;-42
2023/08/08 07:16:09;;;;;;;;;;;17.10;99.90;;;;;;5052942;28;20343;-43
2023/08/08 07:18:37;;;;;;;;;;;17.20;99.90;;;;;;5052987;28;19924;-43
2023/08/08 07:21:05;;;;;;;;;;;17.30;99.90;;;;;;5052327;28;20039;-43
2023/08/08 07:23:32;;;;;;;;;;;17.40;99.90;;;;;;5053239;28;19929;-43
2023/08/08 07:26:00;;;;;;;;;;;17.40;99.90;;;;;;5052449;28;19924;-43
2023/08/08 07:28:27;;;;;;;;;;;17.50;99.90;;;;;;5034377;28;19925;-43
2023/08/08 07:30:53;;;;;;;;;;;17.60;99.90;;;;;;5033559;28;19936;-45
2023/08/08 07:33:20;;;;;;;;;;;17.70;99.90;;;;;;5046509;28;20356;-43
2023/08/08 07:35:47;;;;;;;;;;;17.80;99.90;;;;;;5053710;28;19925;-42
2023/08/08 07:38:13;;;;;;;;;;;17.80;99.90;;;;;;5040378;28;19935;-43
2023/08/08 07:40:41;;;;;;;;;;;17.90;99.90;;;;;;5034104;28;19925;-43
2023/08/08 07:43:09;;;;;;;;;;;18.10;99.90;;;;;;5051509;28;19960;-43
2023/08/08 07:45:37;;;;;;;;;;;18.20;99.90;;;;;;5053645;28;20372;-43
2023/08/08 07:48:04;;;;;;;;;;;18.40;99.90;;;;;;5052118;28;19982;-43
2023/08/08 07:50:30;;;;;;;;;;;18.60;99.90;;;;;;5053607;28;19924;-43
2023/08/08 07:52:57;;;;;;;;;;;18.70;99.90;;;;;;5034769;28;19979;-43
2023/08/08 07:55:24;;;;;;;;;;;18.80;99.90;;;;;;5032245;28;19933;-43
2023/08/08 07:57:50;;;;;;;;;;;18.60;99.90;;;;;;5032427;28;19987;-43
2023/08/08 08:00:20;;;;;;;;;;;18.50;99.90;;;;;;5032868;28;19932;-42
2023/08/08 08:02:46;;;;;;;;;;;18.40;99.90;;;;;;5033394;28;19983;-43
2023/08/08 08:05:13;;;;;;;;;;;18.30;99.90;;;;;;5032814;28;19972;-43
2023/08/08 08:07:40;;;;;;;;;;;18.20;99.90;;;;;;5053531;28;19929;-44
2023/08/08 08:10:08;;;;;;;;;;;18.20;99.90;;;;;;5053664;28;19975;-44
2023/08/08 08:12:35;;;;;;;;;;;18.10;99.90;;;;;;5031433;28;19931;-43
2023/08/08 08:15:02;;;;;;;;;;;18.10;99.90;;;;;;5029314;28;19987;-43
2023/08/08 08:17:30;;;;;;;;;;;18.10;99.90;;;;;;5032207;28;19931;-43
2023/08/08 08:19:56;;;;;;;;;;;18.20;99.90;;;;;;5033265;28;20331;-43
2023/08/08 08:22:23;;;;;;;;;;;18.20;99.90;;;;;;5030324;28;20026;-44
2023/08/08 08:24:50;;;;;;;;;;;18.30;99.90;;;;;;5031911;28;19926;-44
2023/08/08 08:27:16;;;;;;;;;;;18.30;99.90;;;;;;5030130;28;20300;-43
2023/08/08 08:29:43;;;;;;;;;;;18.40;99.90;;;;;;5043889;28;19936;-43
2023/08/08 08:32:10;;;;;;;;;;;18.50;99.90;;;;;;5032591;28;19926;-44
2023/08/08 08:34:38;;;;;;;;;;;18.50;99.90;;;;;;5032799;28;19960;-44
2023/08/08 08:37:04;;;;;;;;;;;18.50;99.90;;;;;;5032045;28;19929;-44
2023/08/08 08:39:31;;;;;;;;;;;18.50;99.90;;;;;;5030103;28;19929;-44
2023/08/08 08:42:01;;;;;;;;;;;18.50;99.90;;;;;;5032622;28;20385;-44
2023/08/08 08:44:28;;;;;;;;;;;18.60;99.90;;;;;;5026964;28;20012;-45
2023/08/08 08:46:54;;;;;;;;;;;18.70;99.90;;;;;;5031696;28;19925;-43
2023/08/08 08:49:21;;;;;;;;;;;18.80;99.90;;;;;;5034283;28;20168;-43
2023/08/08 08:51:49;;;;;;;;;;;18.90;99.90;;;;;;5052692;28;19929;-44
2023/08/08 08:54:16;;;;;;;;;;;18.90;99.90;;;;;;5052390;28;19924;-44
2023/08/08 08:56:43;;;;;;;;;;;18.90;99.90;;;;;;5052538;28;20364;-43
2023/08/08 08:59:09;;;;;;;;;;;19.00;99.90;;;;;;5047265;28;19960;-44
2023/08/08 09:01:36;;;;;;;;;;;19.10;99.90;;;;;;5030387;28;19932;-43
2023/08/08 09:04:03;;;;;;;;;;;19.10;99.90;;;;;;5032422;28;19925;-44
2023/08/08 09:06:29;;;;;;;;;;;19.10;99.90;;;;;;5032585;28;19987;-44
2023/08/08 09:08:57;;;;;;;;;;;19.00;99.90;;;;;;5032272;28;19936;-43
2023/08/08 09:11:24;;;;;;;;;;;19.00;99.90;;;;;;5051686;28;19925;-44
2023/08/08 09:13:51;;;;;;;;;;;19.00;99.90;;;;;;5051248;28;19929;-44
2023/08/08 09:16:18;;;;;;;;;;;19.00;99.90;;;;;;5039248;28;19925;-44
2023/08/08 09:18:45;;;;;;;;;;;19.00;99.90;;;;;;5031462;28;19933;-43
2023/08/08 09:21:11;;;;;;;;;;;19.10;99.90;;;;;;5048598;28;19925;-44
2023/08/08 09:23:38;;;;;;;;;;;19.20;99.90;;;;;;5047231;28;19924;-44
2023/08/08 09:26:07;;;;;;;;;;;19.30;99.90;;;;;;5051763;28;19925;-43
2023/08/08 09:28:33;;;;;;;;;;;19.30;99.90;;;;;;5032058;28;19933;-44
2023/08/08 09:31:00;;;;;;;;;;;19.30;99.90;;;;;;5046047;28;19973;-44
2023/08/08 09:33:29;;;;;;;;;;;19.20;99.90;;;;;;5040390;28;19926;-44
2023/08/08 09:35:55;;;;;;;;;;;19.10;99.90;;;;;;5030956;28;19926;-44
2023/08/08 09:38:22;;;;;;;;;;;18.90;99.90;;;;;;5031950;28;19925;-44
2023/08/08 09:40:49;;;;;;;;;;;18.80;99.90;;;;;;5040360;28;19986;-44
2023/08/08 09:43:17;;;;;;;;;;;18.80;99.90;;;;;;5045318;28;20005;-44
2023/08/08 09:45:44;;;;;;;;;;;18.80;99.90;;;;;;5030901;28;19935;-44
2023/08/08 09:48:11;;;;;;;;;;;19.00;99.90;;;;;;5030850;28;19979;-43
2023/08/08 09:50:38;;;;;;;;;;;19.10;99.90;;;;;;5031540;28;20000;-44
2023/08/08 09:53:06;;;;;;;;;;;19.30;99.90;;;;;;5029950;28;20330;-44
2023/08/08 09:55:33;;;;;;;;;;;19.30;99.90;;;;;;5030669;28;19929;-44
2023/08/08 09:58:00;;;;;;;;;;;19.40;99.90;;;;;;5030850;28;19925;-44
2023/08/08 10:00:30;;;;;;;;;;;19.50;99.90;;;;;;5051735;28;19924;-43
2023/08/08 10:02:56;;;;;;;;;;;19.30;99.90;;;;;;5037053;28;19929;-44
2023/08/08 10:05:23;;;;;;;;;;;19.00;99.90;;;;;;5046398;28;19968;-44
2023/08/08 10:07:50;;;;;;;;;;;18.80;99.90;;;;;;5037761;28;19955;-43
2023/08/08 10:10:18;;;;;;;;;;;18.60;99.90;;;;;;5028100;28;19971;-44
2023/08/08 10:12:46;;;;;;;;;;;18.70;99.90;;;;;;5029995;28;19925;-44
2023/08/08 10:15:12;;;;;;;;;;;18.80;99.90;;;;;;5029820;28;20397;-44
2023/08/08 10:17:41;;;;;;;;;;;19.00;99.90;;;;;;5027674;28;19936;-44
2023/08/08 10:20:11;;;;;;;;;;;19.20;99.90;;;;;;5030010;28;20368;-43
2023/08/08 10:22:38;;;;;;;;;;;19.30;99.90;;;;;;5029942;28;19948;-44
2023/08/08 10:25:05;;;;;;;;;;;19.40;99.90;;;;;;5030408;28;19932;-44
2023/08/08 10:27:32;;;;;;;;;;;19.40;99.90;;;;;;5019258;28;19932;-44
2023/08/08 10:30:02;;;;;;;;;;;19.30;99.90;;;;;;5035748;28;19925;-44
2023/08/08 10:32:28;;;;;;;;;;;19.10;99.90;;;;;;5021281;28;20475;-44
2023/08/08 10:35:00;;;;;;;;;;;18.90;99.90;;;;;;5011651;28;19940;-44
2023/08/08 10:37:27;;;;;;;;;;;18.90;99.90;;;;;;5027765;28;19925;-43
2023/08/08 10:39:54;;;;;;;;;;;19.00;99.90;;;;;;5029193;28;20375;-43
2023/08/08 10:42:21;;;;;;;;;;;18.90;99.90;;;;;;5029310;28;19925;-43
2023/08/08 10:44:52;;;;;;;;;;;18.90;99.90;;;;;;5026133;28;19925;-43
2023/08/08 10:47:22;;;;;;;;;;;18.80;99.90;;;;;;5032173;28;19968;-43
2023/08/08 10:49:58;;;;;;;;;;;18.70;99.90;;;;;;5032378;28;19925;-44
2023/08/08 10:52:24;;;;;;;;;;;18.70;99.90;;;;;;5031338;28;19929;-43
2023/08/08 10:54:52;;;;;;;;;;;18.60;99.90;;;;;;5031214;28;19929;-44
2023/08/08 10:57:19;;;;;;;;;;;18.60;99.90;;;;;;5041059;28;19955;-43
2023/08/08 10:59:46;;;;;;;;;;;18.70;99.90;;;;;;5051977;28;19984;-43
2023/08/08 11:02:12;;;;;;;;;;;18.70;99.90;;;;;;5050850;28;19924;-44
2023/08/08 11:04:39;;;;;;;;;;;18.80;99.90;;;;;;5051348;28;20021;-45
2023/08/08 11:07:07;;;;;;;;;;;19.00;99.90;;;;;;5049035;28;19955;-44
2023/08/08 11:09:34;;;;;;;;;;;19.20;99.90;;;;;;5050757;28;20418;-44
2023/08/08 11:12:01;;;;;;;;;;;19.50;99.90;;;;;;5049739;28;19931;-45
2023/08/08 11:14:27;;;;;;;;;;;19.70;99.90;;;;;;5050917;28;19924;-44
2023/08/08 11:16:54;;;;;;;;;;;20.00;99.90;;;;;;5050889;28;20331;-43
2023/08/08 11:19:22;;;;;;;;;;;20.20;99.90;;;;;;5051891;28;19978;-44
2023/08/08 11:21:49;;;;;;;;;;;20.40;99.90;;;;;;5048598;28;19929;-44
2023/08/08 11:24:17;;;;;;;;;;;20.30;99.90;;;;;;5054529;28;20453;-45
2023/08/08 11:26:45;;;;;;;;;;;20.30;99.90;;;;;;5049026;28;19939;-44
2023/08/08 11:29:11;;;;;;;;;;;20.40;99.90;;;;;;5034801;28;19925;-44
2023/08/08 11:31:38;;;;;;;;;;;20.60;99.90;;;;;;5035568;28;20518;-45
2023/08/08 11:34:05;;;;;;;;;;;20.80;99.90;;;;;;5054656;28;19925;-45
2023/08/08 11:36:32;;;;;;;;;;;20.80;99.90;;;;;;5052690;28;19978;-44
2023/08/08 11:38:59;;;;;;;;;;;21.00;99.90;;;;;;5055382;28;19932;-44
2023/08/08 11:41:27;;;;;;;;;;;21.20;99.90;;;;;;5046614;28;19925;-44
2023/08/08 11:43:54;;;;;;;;;;;21.30;99.90;;;;;;5033826;28;20156;-44
2023/08/08 11:46:23;;;;;;;;;;;21.40;99.90;;;;;;5039703;28;19930;-44
2023/08/08 11:48:50;;;;;;;;;;;21.60;99.90;;;;;;5055406;28;19932;-44
2023/08/08 11:51:17;;;;;;;;;;;21.50;99.80;;;;;;5054389;28;19925;-44
2023/08/08 11:53:50;;;;;;;;;;;21.30;98.70;;;;;;5054170;28;19925;-44
2023/08/08 11:56:17;;;;;;;;;;;21.10;99.90;;;;;;5051866;28;20375;-44
2023/08/08 11:58:45;;;;;;;;;;;21.20;99.90;;;;;;5054870;28;19956;-44
2023/08/08 12:01:14;;;;;;;;;;;21.40;99.90;;;;;;5055171;28;19986;-44
2023/08/08 12:03:40;;;;;;;;;;;21.50;99.90;;;;;;5055096;28;20024;-44
2023/08/08 12:06:12;;;;;;;;;;;21.60;98.80;;;;;;5052533;28;19925;-44
2023/08/08 12:08:39;;;;;;;;;;;21.70;99.50;;;;;;5055336;28;19931;-44
2023/08/08 12:11:05;;;;;;;;;;;21.90;99.90;;;;;;5054831;28;20312;-44
2023/08/08 12:13:35;;;;;;;;;;;22.10;99.90;;;;;;5055079;28;19967;-44
2023/08/08 12:16:04;;;;;;;;;;;22.10;97.60;;;;;;5052806;28;19924;-43
2023/08/08 12:18:30;;;;;;;;;;;22.20;99.40;;;;;;5034861;28;19931;-45
2023/08/08 12:20:57;;;;;;;;;;;22.30;97.90;;;;;;5034594;28;20369;-44
2023/08/08 12:23:24;;;;;;;;;;;22.30;96.20;;;;;;5035099;28;19979;-44
2023/08/08 12:25:50;;;;;;;;;;;22.20;94.40;;;;;;5034491;28;20015;-44
2023/08/08 12:28:17;;;;;;;;;;;22.30;95.40;;;;;;5051528;28;19929;-44
2023/08/08 12:30:44;;;;;;;;;;;22.30;96.50;;;;;;5043630;28;20286;-44
2023/08/08 12:33:12;;;;;;;;;;;22.20;96.00;;;;;;5033537;28;19932;-44
2023/08/08 12:35:39;;;;;;;;;;;22.10;94.50;;;;;;5033364;28;20290;-44
2023/08/08 12:38:05;;;;;;;;;;;21.90;94.60;;;;;;5046398;28;19974;-44
2023/08/08 12:40:33;;;;;;;;;;;21.60;95.40;;;;;;5040101;28;19925;-44
2023/08/08 12:43:00;;;;;;;;;;;21.30;95.50;;;;;;5032088;28;19933;-44
2023/08/08 12:45:27;;;;;;;;;;;21.10;96.60;;;;;;5034346;28;19925;-45
2023/08/08 12:47:53;;;;;;;;;;;20.90;97.30;;;;;;5034210;28;19925;-45
2023/08/08 12:50:21;;;;;;;;;;;20.90;98.60;;;;;;5033615;28;19925;-44
2023/08/08 12:52:48;;;;;;;;;;;21.10;97.90;;;;;;5034070;28;19925;-44
2023/08/08 12:55:17;;;;;;;;;;;21.30;98.60;;;;;;5031625;28;19959;-44
2023/08/08 12:57:44;;;;;;;;;;;21.60;98.10;;;;;;5034065;28;20029;-44
2023/08/08 13:00:12;;;;;;;;;;;21.80;95.20;;;;;;5033065;28;19935;-44
2023/08/08 13:02:39;;;;;;;;;;;21.90;93.50;;;;;;5034036;28;20024;-44
2023/08/08 13:05:06;;;;;;;;;;;21.90;93.00;;;;;;5048584;28;19991;-44
2023/08/08 13:07:34;;;;;;;;;;;21.90;92.80;;;;;;5033678;28;20430;-44
2023/08/08 13:10:01;;;;;;;;;;;21.80;93.20;;;;;;5032727;28;20323;-44
2023/08/08 13:12:28;;;;;;;;;;;21.70;93.50;;;;;;5032904;28;19925;-45
2023/08/08 13:14:54;;;;;;;;;;;21.60;93.00;;;;;;5038068;28;20285;-42
2023/08/08 13:17:21;;;;;;;;;;;21.30;92.80;;;;;;5032776;28;19925;-43
2023/08/08 13:19:48;;;;;;;;;;;21.20;93.90;;;;;;5031617;28;20284;-43
2023/08/08 13:22:15;;;;;;;;;;;21.30;94.30;;;;;;5032351;28;19925;-43
2023/08/08 13:24:43;;;;;;;;;;;21.40;91.90;;;;;;5047578;28;19932;-43
2023/08/08 13:27:09;;;;;;;;;;;21.50;93.80;;;;;;5042629;28;19925;-43
2023/08/08 13:29:36;;;;;;;;;;;21.40;94.30;;;;;;5032486;28;20296;-43
2023/08/08 13:32:03;;;;;;;;;;;21.30;93.90;;;;;;5036380;28;19932;-42
2023/08/08 13:34:30;;;;;;;;;;;21.30;93.90;;;;;;5025564;28;19995;-43
2023/08/08 13:36:56;;;;;;;;;;;21.40;95.30;;;;;;5047676;28;19925;-45
2023/08/08 13:39:23;;;;;;;;;;;21.60;94.90;;;;;;5047366;28;20021;-42
2023/08/08 13:41:51;;;;;;;;;;;21.80;94.50;;;;;;5029653;28;19925;-43
2023/08/08 13:44:18;;;;;;;;;;;21.80;92.00;;;;;;5047131;28;19932;-42
2023/08/08 13:46:45;;;;;;;;;;;21.60;92.00;;;;;;5030182;28;19936;-42
2023/08/08 13:49:11;;;;;;;;;;;21.30;92.70;;;;;;5030131;28;19925;-42
2023/08/08 13:51:38;;;;;;;;;;;21.00;91.80;;;;;;5032054;28;20024;-43
2023/08/08 13:54:05;;;;;;;;;;;20.80;92.50;;;;;;5031583;28;19925;-43
2023/08/08 13:56:32;;;;;;;;;;;20.90;95.10;;;;;;5032508;28;19925;-43
2023/08/08 13:59:00;;;;;;;;;;;21.00;96.50;;;;;;5033884;28;19975;-43
2023/08/08 14:01:26;;;;;;;;;;;21.00;96.90;;;;;;5052804;28;19932;-43
2023/08/08 14:03:53;;;;;;;;;;;21.00;97.60;;;;;;5051594;28;19978;-43
2023/08/08 14:06:20;;;;;;;;;;;20.90;98.90;;;;;;5052566;28;19986;-43
2023/08/08 14:08:46;;;;;;;;;;;21.20;99.90;;;;;;5036008;28;19925;-43
2023/08/08 14:11:13;;;;;;;;;;;21.40;99.90;;;;;;5035705;28;19924;-43
2023/08/08 14:13:40;;;;;;;;;;;21.50;99.40;;;;;;5023247;28;19933;-43